createdAt,value
2018-07-20T00:02:17.521Z,98445.29
2018-07-20T00:04:46.645Z,98449.66
2018-07-20T00:07:15.984Z,98444.84
2018-07-20T00:09:45.238Z,98444.84
2018-07-20T00:12:14.485Z,98447.45
2018-07-20T00:14:43.662Z,98448.94
2018-07-20T00:17:12.912Z,98448.88
2018-07-20T00:19:42.168Z,98444.57
2018-07-20T00:22:11.360Z,98444.97
2018-07-20T00:24:40.568Z,98440.81
2018-07-20T00:27:09.797Z,98441.52
2018-07-20T00:29:38.919Z,98441.72
2018-07-20T00:32:08.200Z,98436.54
2018-07-20T00:34:37.400Z,98432.41
2018-07-20T00:37:06.628Z,98434.56
2018-07-20T00:39:35.856Z,98432.13
2018-07-20T00:42:05.069Z,98435.81
2018-07-20T00:44:34.288Z,98432.95
2018-07-20T00:47:03.487Z,98426.58
2018-07-20T00:49:32.818Z,98427.48
2018-07-20T00:52:02.036Z,98423.02
2018-07-20T00:54:31.221Z,98422.22
2018-07-20T00:57:00.584Z,98418.58
2018-07-20T00:59:29.705Z,98429.53
2018-07-20T01:01:58.911Z,98413.56
2018-07-20T01:04:28.095Z,98413.40
2018-07-20T01:06:57.541Z,98418.17
2018-07-20T01:09:26.697Z,98411.48
2018-07-20T01:11:55.809Z,98414.87
2018-07-20T01:14:25.064Z,98411.28
2018-07-20T01:16:54.220Z,98410.77
2018-07-20T01:19:23.464Z,98410.15
2018-07-20T01:21:52.605Z,98407.70
2018-07-20T01:24:21.854Z,98402.30
2018-07-20T01:26:51.053Z,98403.43
2018-07-20T01:29:20.232Z,98405.09
2018-07-20T01:31:49.404Z,98402.06
2018-07-20T01:34:18.644Z,98401.91
2018-07-20T01:36:48.161Z,98410.59
2018-07-20T01:39:17.388Z,98400.70
2018-07-20T01:41:46.504Z,98402.54
2018-07-20T01:44:15.840Z,98398.55
2018-07-20T01:46:44.989Z,98396.98
2018-07-20T01:49:14.233Z,98403.05
2018-07-20T01:51:43.378Z,98404.64
2018-07-20T01:54:12.620Z,98401.02
2018-07-20T01:56:41.780Z,98398.30
2018-07-20T01:59:11.229Z,98396.50
2018-07-20T02:01:41.362Z,98394.79
2018-07-20T02:04:10.540Z,98393.84
2018-07-20T02:06:39.704Z,98394.08
2018-07-20T02:09:10.505Z,98395.48
2018-07-20T02:11:40.552Z,98390.09
2018-07-20T02:14:09.800Z,98387.44
2018-07-20T02:16:38.954Z,98384.39
2018-07-20T02:19:08.136Z,98381.55
2018-07-20T02:21:37.384Z,98383.53
2018-07-20T02:24:06.751Z,98383.88
2018-07-20T02:26:35.908Z,98383.30
2018-07-20T02:29:05.443Z,98376.65
2018-07-20T02:31:34.726Z,98369.11
2018-07-20T02:34:03.989Z,98372.98
2018-07-20T02:36:33.250Z,98374.47
2018-07-20T02:39:02.551Z,98367.59
2018-07-20T02:41:31.735Z,98371.03
2018-07-20T02:44:00.968Z,98371.19
2018-07-20T02:46:30.161Z,98373.41
2018-07-20T02:48:59.389Z,98366.94
2018-07-20T02:51:28.571Z,98362.52
2018-07-20T02:53:57.816Z,98365.25
2018-07-20T02:56:27.140Z,98363.26
2018-07-20T02:58:56.293Z,98367.81
2018-07-20T03:01:25.560Z,98363.69
2018-07-20T03:03:54.760Z,98363.30
2018-07-20T03:06:23.905Z,98357.31
2018-07-20T03:08:53.253Z,98353.49
2018-07-20T03:11:22.402Z,98359.42
2018-07-20T03:13:51.781Z,98350.84
2018-07-20T03:16:21.141Z,98354.73
2018-07-20T03:18:50.364Z,98359.28
2018-07-20T03:21:19.489Z,98358.38
2018-07-20T03:23:48.737Z,98358.07
2018-07-20T03:26:18.089Z,98370.41
2018-07-20T03:28:47.260Z,98364.39
2018-07-20T03:31:16.383Z,98364.94
2018-07-20T03:33:45.632Z,98362.67
2018-07-20T03:36:14.791Z,98360.13
2018-07-20T03:38:44.241Z,98358.38
2018-07-20T03:41:13.376Z,98359.70
2018-07-20T03:43:42.528Z,98355.55
2018-07-20T03:46:11.763Z,98353.80
2018-07-20T03:48:41.116Z,98349.66
2018-07-20T03:51:10.315Z,98354.48
2018-07-20T03:53:39.605Z,98352.98
2018-07-20T03:56:08.925Z,98352.92
2018-07-20T03:58:38.112Z,98349.65
2018-07-20T04:01:07.425Z,98345.67
2018-07-20T04:03:36.534Z,98184.92
2018-07-20T04:06:05.708Z,98339.33
2018-07-20T04:08:35.205Z,98356.27
2018-07-20T04:11:04.422Z,98338.79
2018-07-20T04:13:33.544Z,98340.41
2018-07-20T04:16:02.934Z,98341.45
2018-07-20T04:18:32.172Z,98336.81
2018-07-20T04:21:01.412Z,98342.20
2018-07-20T04:23:30.556Z,98342.71
2018-07-20T04:25:59.760Z,98342.37
2018-07-20T04:28:29.004Z,98334.68
2018-07-20T04:30:58.252Z,98018.33
2018-07-20T04:33:27.410Z,98336.05
2018-07-20T04:35:56.549Z,98335.38
2018-07-20T04:38:25.780Z,98338.26
2018-07-20T04:40:55.049Z,98329.45
2018-07-20T04:43:24.353Z,98333.91
2018-07-20T04:45:53.548Z,98326.53
2018-07-20T04:48:22.738Z,98327.23
2018-07-20T04:50:52.001Z,98327.04
2018-07-20T04:53:21.128Z,98328.03
2018-07-20T04:55:50.384Z,98325.70
2018-07-20T04:58:20.423Z,98328.88
2018-07-20T05:00:49.604Z,98325.72
2018-07-20T05:03:18.928Z,98320.83
2018-07-20T05:05:48.232Z,98321.05
2018-07-20T05:08:17.452Z,98318.30
2018-07-20T05:10:46.720Z,98321.45
2018-07-20T05:13:15.841Z,98318.75
2018-07-20T05:15:45.091Z,98321.30
2018-07-20T05:18:14.208Z,98318.72
2018-07-20T05:20:43.472Z,98317.79
2018-07-20T05:23:12.593Z,98310.00
2018-07-20T05:25:41.852Z,98317.48
2018-07-20T05:28:10.961Z,98314.72
2018-07-20T05:30:40.160Z,98313.52
2018-07-20T05:33:10.514Z,98311.50
2018-07-20T05:35:39.784Z,98307.79
2018-07-20T05:38:08.964Z,98304.79
2018-07-20T05:40:38.191Z,98307.27
2018-07-20T05:43:07.328Z,98300.84
2018-07-20T05:45:36.673Z,98306.59
2018-07-20T05:48:06.100Z,98307.02
2018-07-20T05:50:35.313Z,98312.02
2018-07-20T05:53:04.448Z,98306.63
2018-07-20T05:55:33.563Z,98302.97
2018-07-20T05:58:02.850Z,98301.13
2018-07-20T06:00:32.092Z,98298.36
2018-07-20T06:03:01.352Z,98300.45
2018-07-20T06:05:30.556Z,98295.98
2018-07-20T06:07:59.717Z,98300.27
2018-07-20T06:10:28.953Z,98300.67
2018-07-20T06:12:58.204Z,98295.05
2018-07-20T06:15:27.403Z,98299.24
2018-07-20T06:17:56.526Z,98299.10
2018-07-20T06:20:25.741Z,98294.77
2018-07-20T06:22:54.887Z,98291.28
2018-07-20T06:25:24.074Z,98296.73
2018-07-20T06:27:53.189Z,98293.71
2018-07-20T06:30:22.428Z,98290.50
2018-07-20T06:32:51.580Z,98291.13
2018-07-20T06:35:20.811Z,98291.13
2018-07-20T06:37:49.997Z,98290.02
2018-07-20T06:40:19.220Z,98289.05
2018-07-20T06:42:48.432Z,98286.84
2018-07-20T06:45:17.751Z,98285.79
2018-07-20T06:47:46.865Z,98283.49
2018-07-20T06:50:16.792Z,98293.28
2018-07-20T06:52:47.436Z,98288.87
2018-07-20T06:55:16.688Z,98292.65
2018-07-20T06:57:46.193Z,98292.61
2018-07-20T07:00:15.556Z,98291.89
2018-07-20T07:02:44.897Z,98296.82
2018-07-20T07:05:14.109Z,98291.52
2018-07-20T07:07:43.329Z,98293.89
2018-07-20T07:10:12.676Z,98292.83
2018-07-20T07:12:41.955Z,98289.08
2018-07-20T07:15:11.339Z,98289.00
2018-07-20T07:17:40.661Z,98286.08
2018-07-20T07:20:09.825Z,98282.25
2018-07-20T07:22:39.240Z,98279.92
2018-07-20T07:25:08.402Z,98282.11
2018-07-20T07:27:37.600Z,98281.39
2018-07-20T07:30:07.058Z,98279.28
2018-07-20T07:32:36.435Z,98272.56
2018-07-20T07:35:05.613Z,98268.55
2018-07-20T07:37:34.973Z,98269.92
2018-07-20T07:40:04.228Z,98272.34
2018-07-20T07:42:33.553Z,98276.94
2018-07-20T07:45:02.811Z,98272.04
2018-07-20T07:47:32.158Z,98271.53
2018-07-20T07:50:01.414Z,98271.79
2018-07-20T07:52:30.803Z,98264.16
2018-07-20T07:55:00.011Z,98266.09
2018-07-20T07:57:29.233Z,98264.38
2018-07-20T07:59:58.397Z,98265.66
2018-07-20T08:02:27.769Z,98262.67
2018-07-20T08:04:57.168Z,98262.08
2018-07-20T08:07:26.678Z,98257.01
2018-07-20T08:09:56.038Z,98264.09
2018-07-20T08:12:25.230Z,98264.14
2018-07-20T08:14:54.674Z,98270.70
2018-07-20T08:17:23.939Z,98259.44
2018-07-20T08:19:53.304Z,98261.65
2018-07-20T08:22:22.778Z,98261.08
2018-07-20T08:24:51.917Z,98261.27
2018-07-20T08:27:21.125Z,98260.99
2018-07-20T08:29:50.368Z,98255.16
2018-07-20T08:32:19.642Z,98256.30
2018-07-20T08:34:48.841Z,98251.92
2018-07-20T08:37:18.128Z,98247.42
2018-07-20T08:39:47.697Z,98245.79
2018-07-20T08:42:17.178Z,98250.16
2018-07-20T08:44:46.580Z,98243.52
2018-07-20T08:47:15.965Z,98243.75
2018-07-20T08:49:45.380Z,98239.77
2018-07-20T08:52:14.679Z,98233.37
2018-07-20T08:54:43.918Z,98234.22
2018-07-20T08:57:13.178Z,98232.31
2018-07-20T08:59:42.471Z,98231.26
2018-07-20T09:02:11.886Z,98076.41
2018-07-20T09:04:41.184Z,98235.91
2018-07-20T09:07:10.474Z,98235.17
2018-07-20T09:09:39.886Z,98226.05
2018-07-20T09:12:09.118Z,98223.94
2018-07-20T09:14:38.482Z,98221.40
2018-07-20T09:17:07.876Z,98219.16
2018-07-20T09:19:37.075Z,98220.86
2018-07-20T09:22:06.287Z,98219.58
2018-07-20T09:24:35.575Z,98223.48
2018-07-20T09:27:04.814Z,98216.31
2018-07-20T09:29:34.381Z,98212.24
2018-07-20T09:32:03.703Z,98213.32
2018-07-20T09:34:33.061Z,98215.17
2018-07-20T09:37:02.211Z,98205.30
2018-07-20T09:39:31.464Z,98206.77
2018-07-20T09:42:00.903Z,98202.16
2018-07-20T09:44:30.357Z,98195.73
2018-07-20T09:47:00.722Z,98196.97
2018-07-20T09:49:30.086Z,98200.21
2018-07-20T09:51:59.270Z,98190.30
2018-07-20T09:54:28.500Z,98190.46
2018-07-20T09:56:57.672Z,98189.52
2018-07-20T09:59:26.966Z,98189.42
2018-07-20T10:01:56.128Z,98188.45
2018-07-20T10:04:25.324Z,98192.55
2018-07-20T10:06:55.307Z,98188.19
2018-07-20T10:09:24.731Z,98179.70
2018-07-20T10:11:53.994Z,98177.70
2018-07-20T10:14:23.391Z,98185.17
2018-07-20T10:16:52.530Z,98178.70
2018-07-20T10:19:21.928Z,98176.05
2018-07-20T10:21:51.145Z,98173.52
2018-07-20T10:24:20.329Z,98173.98
2018-07-20T10:26:50.142Z,98165.44
2018-07-20T10:29:19.385Z,98172.00
2018-07-20T10:31:48.507Z,98170.40
2018-07-20T10:34:17.703Z,98175.23
2018-07-20T10:36:46.797Z,98169.48
2018-07-20T10:39:16.077Z,98163.83
2018-07-20T10:41:45.200Z,98159.55
2018-07-20T10:44:14.382Z,98156.76
2018-07-20T10:46:43.625Z,98162.94
2018-07-20T10:49:12.792Z,98157.91
2018-07-20T10:51:42.026Z,98146.39
2018-07-20T10:54:11.412Z,98153.12
2018-07-20T10:56:40.751Z,98153.32
2018-07-20T10:59:10.069Z,98158.98
2018-07-20T11:01:39.400Z,98155.05
2018-07-20T11:04:08.704Z,98143.36
2018-07-20T11:06:37.837Z,98142.55
2018-07-20T11:09:09.059Z,98142.97
2018-07-20T11:11:38.252Z,98137.41
2018-07-20T11:14:07.502Z,98140.20
2018-07-20T11:16:36.654Z,98138.07
2018-07-20T11:19:06.113Z,98137.13
2018-07-20T11:21:35.457Z,98143.26
2018-07-20T11:24:04.589Z,98138.59
2018-07-20T11:26:33.804Z,98141.94
2018-07-20T11:29:04.222Z,98140.84
2018-07-20T11:31:33.417Z,98132.97
2018-07-20T11:34:08.492Z,97893.23
2018-07-20T11:36:37.773Z,98122.08
2018-07-20T11:39:08.662Z,98120.09
2018-07-20T11:41:38.542Z,98117.77
2018-07-20T11:44:08.090Z,98115.28
2018-07-20T11:46:37.339Z,98109.13
2018-07-20T11:49:06.570Z,98108.48
2018-07-20T11:51:35.761Z,98107.58
2018-07-20T11:54:04.960Z,98101.72
2018-07-20T11:56:34.301Z,98099.72
2018-07-20T11:59:03.497Z,98089.46
2018-07-20T12:01:32.855Z,98087.19
2018-07-20T12:04:02.615Z,98082.91
2018-07-20T12:06:32.542Z,98086.14
2018-07-20T12:09:02.039Z,98086.97
2018-07-20T12:11:31.233Z,98083.78
2018-07-20T12:14:00.753Z,98086.83
2018-07-20T12:16:30.115Z,98078.08
2018-07-20T12:18:59.408Z,98074.68
2018-07-20T12:21:28.678Z,98070.09
2018-07-20T12:23:58.054Z,98067.23
2018-07-20T12:26:27.380Z,98058.10
2018-07-20T12:28:56.758Z,98054.62
2018-07-20T12:31:26.053Z,98058.86
2018-07-20T12:33:55.370Z,98058.38
2018-07-20T12:36:24.613Z,98057.95
2018-07-20T12:38:54.048Z,98049.61
2018-07-20T12:41:23.358Z,98050.07
2018-07-20T12:43:52.638Z,98051.23
2018-07-20T12:46:22.160Z,98047.08
2018-07-20T12:48:51.541Z,98046.75
2018-07-20T12:51:21.050Z,98040.92
2018-07-20T12:53:50.293Z,98043.16
2018-07-20T12:56:19.550Z,98029.58
2018-07-20T12:58:48.725Z,98027.73
2018-07-20T13:01:17.957Z,98020.61
2018-07-20T13:03:47.196Z,98025.80
2018-07-20T13:06:16.343Z,98025.05
2018-07-20T13:08:45.507Z,98022.19
2018-07-20T13:11:14.810Z,98020.37
2018-07-20T13:13:44.252Z,98014.54
2018-07-20T13:16:13.482Z,98015.70
2018-07-20T13:18:42.689Z,98021.33
2018-07-20T13:21:11.821Z,98013.06
2018-07-20T13:23:41.135Z,98018.77
2018-07-20T13:26:10.535Z,98025.77
2018-07-20T13:28:39.989Z,98020.05
2018-07-20T13:31:09.167Z,98022.48
2018-07-20T13:33:38.539Z,98016.14
2018-07-20T13:36:07.847Z,98015.55
2018-07-20T13:38:37.239Z,98015.19
2018-07-20T13:41:06.529Z,98014.33
2018-07-20T13:43:35.845Z,98007.78
2018-07-20T13:46:06.130Z,98003.23
2018-07-20T13:48:35.310Z,98008.27
2018-07-20T13:51:04.624Z,98008.55
2018-07-20T13:53:33.866Z,98000.79
2018-07-20T13:56:02.999Z,97998.17
2018-07-20T13:58:32.199Z,97987.93
2018-07-20T14:01:01.347Z,97991.23
2018-07-20T14:03:30.748Z,97981.83
2018-07-20T14:06:00.027Z,97982.20
2018-07-20T14:08:29.458Z,97982.48
2018-07-20T14:10:58.733Z,97975.90
2018-07-20T14:13:28.053Z,97976.91
2018-07-20T14:15:57.289Z,97967.77
2018-07-20T14:18:26.659Z,97962.27
2018-07-20T14:20:55.953Z,97961.38
2018-07-20T14:23:25.249Z,97954.90
2018-07-20T14:25:54.477Z,97955.05
2018-07-20T14:28:23.620Z,97954.23
2018-07-20T14:30:52.942Z,97950.05
2018-07-20T14:33:22.053Z,97951.41
2018-07-20T14:35:52.241Z,97951.85
2018-07-20T14:38:21.442Z,97948.66
2018-07-20T14:40:50.848Z,97940.52
2018-07-20T14:43:20.038Z,97938.25
2018-07-20T14:45:49.180Z,97937.23
2018-07-20T14:48:18.429Z,97934.67
2018-07-20T14:50:47.582Z,97931.52
2018-07-20T14:53:17.113Z,97930.88
2018-07-20T14:55:46.334Z,97930.27
2018-07-20T14:58:15.728Z,97930.45
2018-07-20T15:00:44.956Z,97926.92
2018-07-20T15:03:14.167Z,97930.08
2018-07-20T15:05:43.377Z,97927.25
2018-07-20T15:08:12.626Z,97927.91
2018-07-20T15:10:41.889Z,97926.57
2018-07-20T15:13:11.132Z,97924.44
2018-07-20T15:15:40.988Z,97933.22
2018-07-20T15:18:10.089Z,97924.36
2018-07-20T15:20:39.268Z,97925.22
2018-07-20T15:23:08.525Z,97924.40
2018-07-20T15:25:37.849Z,97921.42
2018-07-20T15:28:07.082Z,97916.53
2018-07-20T15:30:36.213Z,97912.70
2018-07-20T15:33:05.604Z,97914.29
2018-07-20T15:35:34.819Z,97915.34
2018-07-20T15:38:04.164Z,97911.63
2018-07-20T15:40:33.425Z,97912.51
2018-07-20T15:43:02.700Z,97911.05
2018-07-20T15:45:31.912Z,97908.63
2018-07-20T15:48:01.065Z,97905.87
2018-07-20T15:50:30.252Z,97910.89
2018-07-20T15:53:36.268Z,97906.56
2018-07-20T15:55:28.698Z,97905.57
2018-07-20T15:57:57.854Z,97900.72
2018-07-20T16:00:27.060Z,97898.12
2018-07-20T16:02:56.257Z,97904.03
2018-07-20T16:05:25.489Z,97904.95
2018-07-20T16:07:54.619Z,97897.76
2018-07-20T16:10:23.884Z,97903.06
2018-07-20T16:12:53.046Z,97904.00
2018-07-20T16:15:22.239Z,97896.17
2018-07-20T16:17:51.400Z,97891.88
2018-07-20T16:20:20.676Z,97893.92
2018-07-20T16:22:49.857Z,97901.61
2018-07-20T16:25:19.029Z,97887.77
2018-07-20T16:27:48.248Z,97889.31
2018-07-20T16:30:17.477Z,97843.87
2018-07-20T16:32:46.613Z,97886.34
2018-07-20T16:35:15.848Z,97881.45
2018-07-20T16:37:45.013Z,97889.39
2018-07-20T16:40:14.255Z,97888.95
2018-07-20T16:42:43.441Z,97886.20
2018-07-20T16:45:12.644Z,97881.86
2018-07-20T16:47:41.813Z,97870.75
2018-07-20T16:50:11.421Z,97871.72
2018-07-20T16:52:40.552Z,97872.06
2018-07-20T16:55:09.852Z,97862.11
2018-07-20T16:57:39.132Z,97862.59
2018-07-20T17:00:08.880Z,97860.83
2018-07-20T17:02:38.048Z,97854.73
2018-07-20T17:05:07.256Z,97858.08
2018-07-20T17:07:36.400Z,97857.32
2018-07-20T17:10:05.993Z,97856.77
2018-07-20T17:12:35.219Z,97854.13
2018-07-20T17:15:04.671Z,97854.84
2018-07-20T17:17:33.848Z,97854.61
2018-07-20T17:20:03.341Z,97853.88
2018-07-20T17:22:32.660Z,97855.09
2018-07-20T17:25:01.921Z,97859.26
2018-07-20T17:27:31.154Z,97859.20
2018-07-20T17:30:00.382Z,97853.58
2018-07-20T17:32:29.549Z,97853.14
2018-07-20T17:34:58.802Z,97788.10
2018-07-20T17:37:28.072Z,97853.69
2018-07-20T17:39:57.237Z,97855.78
2018-07-20T17:42:26.546Z,97859.98
2018-07-20T17:44:55.796Z,97854.88
2018-07-20T17:47:25.041Z,97853.88
2018-07-20T17:49:54.259Z,97851.42
2018-07-20T17:52:23.420Z,97853.27
2018-07-20T17:54:52.520Z,97857.10
2018-07-20T17:57:21.843Z,97849.50
2018-07-20T17:59:50.977Z,97854.08
2018-07-20T18:02:20.168Z,97855.95
2018-07-20T18:04:49.547Z,97851.42
2018-07-20T18:07:18.854Z,97852.73
2018-07-20T18:09:48.093Z,97856.43
2018-07-20T18:12:17.341Z,97857.85
2018-07-20T18:14:46.464Z,97851.42
2018-07-20T18:17:16.193Z,97850.02
2018-07-20T18:19:45.341Z,97859.19
2018-07-20T18:22:14.641Z,97856.88
2018-07-20T18:24:43.891Z,97856.26
2018-07-20T18:27:13.262Z,97858.69
2018-07-20T18:29:42.423Z,97865.28
2018-07-20T18:32:11.668Z,97864.18
2018-07-20T18:34:40.856Z,97868.25
2018-07-20T18:37:10.079Z,97860.85
2018-07-20T18:39:39.189Z,97857.73
2018-07-20T18:42:08.545Z,97863.08
2018-07-20T18:44:37.665Z,97864.02
2018-07-20T18:47:07.005Z,97865.52
2018-07-20T18:49:36.166Z,97872.48
2018-07-20T18:52:05.432Z,97867.58
2018-07-20T18:54:34.548Z,97873.61
2018-07-20T18:57:03.816Z,97878.89
2018-07-20T18:59:32.966Z,97872.00
2018-07-20T19:02:02.125Z,97876.83
2018-07-20T19:04:31.332Z,97869.86
2018-07-20T19:07:00.705Z,97863.99
2018-07-20T19:09:29.821Z,97863.26
2018-07-20T19:11:59.194Z,97865.02
2018-07-20T19:14:28.634Z,97858.25
2018-07-20T19:16:57.833Z,97863.66
2018-07-20T19:19:26.990Z,97860.25
2018-07-20T19:21:56.152Z,97860.52
2018-07-20T19:24:25.329Z,97871.52
2018-07-20T19:26:54.635Z,97866.16
2018-07-20T19:29:23.729Z,97865.52
2018-07-20T19:31:52.916Z,97870.41
2018-07-20T19:34:22.238Z,97872.09
2018-07-20T19:36:51.317Z,97879.29
2018-07-20T19:39:20.555Z,97885.48
2018-07-20T19:41:49.809Z,97887.73
2018-07-20T19:44:21.369Z,97895.66
2018-07-20T19:46:50.573Z,97894.70
2018-07-20T19:49:19.911Z,97898.56
2018-07-20T19:51:49.033Z,97905.45
2018-07-20T19:54:18.288Z,97903.15
2018-07-20T19:56:47.451Z,97902.45
2018-07-20T19:59:16.661Z,97899.23
2018-07-20T20:01:46.882Z,97894.45
2018-07-20T20:04:16.143Z,97895.07
2018-07-20T20:06:45.375Z,97896.81
2018-07-20T20:09:14.609Z,97893.41
2018-07-20T20:11:43.764Z,97897.56
2018-07-20T20:14:13.004Z,97891.64
2018-07-20T20:16:42.222Z,97895.81
2018-07-20T20:19:11.444Z,97894.44
2018-07-20T20:21:40.666Z,97894.50
2018-07-20T20:24:09.912Z,97901.83
2018-07-20T20:26:39.160Z,97893.55
2018-07-20T20:29:08.389Z,97891.40
2018-07-20T20:31:37.543Z,97885.84
2018-07-20T20:34:06.831Z,97880.76
2018-07-20T20:36:36.179Z,97881.13
2018-07-20T20:39:10.121Z,97888.25
2018-07-20T20:41:39.269Z,97878.87
2018-07-20T20:44:08.624Z,97889.91
2018-07-20T20:46:37.960Z,97887.02
2018-07-20T20:49:07.272Z,97879.23
2018-07-20T20:51:36.449Z,97877.62
2018-07-20T20:54:06.217Z,97879.83
2018-07-20T20:56:35.333Z,97876.05
2018-07-20T20:59:04.634Z,97875.78
2018-07-20T21:01:33.899Z,97879.81
2018-07-20T21:04:03.105Z,97878.75
2018-07-20T21:06:32.265Z,97880.16
2018-07-20T21:09:01.504Z,97887.42
2018-07-20T21:11:30.677Z,97887.16
2018-07-20T21:13:59.882Z,97888.78
2018-07-20T21:16:29.001Z,97886.65
2018-07-20T21:18:58.375Z,97885.83
2018-07-20T21:21:27.680Z,97883.70
2018-07-20T21:23:56.808Z,97888.23
2018-07-20T21:26:25.960Z,97889.83
2018-07-20T21:28:55.131Z,97894.39
2018-07-20T21:31:24.549Z,97890.89
2018-07-20T21:33:53.832Z,97891.13
2018-07-20T21:36:22.999Z,97892.49
2018-07-20T21:38:52.288Z,97895.95
2018-07-20T21:41:21.560Z,97890.63
2018-07-20T21:43:50.725Z,97897.86
2018-07-20T21:46:19.889Z,97891.68
2018-07-20T21:48:49.178Z,97899.48
2018-07-20T21:51:18.340Z,97898.44
2018-07-20T21:53:47.532Z,97894.92
2018-07-20T21:56:16.754Z,97896.80
2018-07-20T21:58:45.996Z,97899.23
2018-07-20T22:01:15.240Z,97896.28
2018-07-20T22:03:44.701Z,97895.48
2018-07-20T22:06:13.880Z,97897.62
2018-07-20T22:08:42.994Z,97902.45
2018-07-20T22:11:12.205Z,97902.67
2018-07-20T22:13:41.320Z,97908.08
2018-07-20T22:16:10.508Z,97909.43
2018-07-20T22:18:39.609Z,97905.69
2018-07-20T22:21:08.760Z,97902.48
2018-07-20T22:23:37.888Z,97900.56
2018-07-20T22:26:08.744Z,97902.20
2018-07-20T22:28:39.714Z,97899.00
2018-07-20T22:31:09.001Z,97898.43
2018-07-20T22:33:38.242Z,97902.72
2018-07-20T22:36:07.484Z,97904.32
2018-07-20T22:38:36.738Z,97902.73
2018-07-20T22:41:05.999Z,97896.00
2018-07-20T22:43:37.670Z,97897.87
2018-07-20T22:46:08.090Z,97894.12
2018-07-20T22:48:37.204Z,97898.14
2018-07-20T22:51:06.457Z,97898.42
2018-07-20T22:53:35.605Z,97901.61
2018-07-20T22:56:04.876Z,97899.19
2018-07-20T22:58:34.073Z,97898.67
2018-07-20T23:01:03.236Z,97898.92
2018-07-20T23:06:00.437Z,97906.92
2018-07-20T23:08:29.565Z,97898.91
2018-07-20T23:10:58.812Z,97890.50
2018-07-20T23:13:28.036Z,97629.47
2018-07-20T23:15:57.292Z,97902.25
2018-07-20T23:18:26.438Z,97898.77
2018-07-20T23:20:55.800Z,97896.33
2018-07-20T23:23:24.960Z,97900.02
2018-07-20T23:25:54.249Z,97903.27
2018-07-20T23:28:23.389Z,97895.48
2018-07-20T23:30:52.548Z,97891.45
2018-07-20T23:33:21.789Z,97886.05
2018-07-20T23:35:51.002Z,97889.55
2018-07-20T23:38:20.142Z,97884.72
2018-07-20T23:40:49.277Z,97882.40
2018-07-20T23:43:18.443Z,97879.41
2018-07-20T23:45:47.600Z,97877.48
2018-07-20T23:48:16.793Z,97877.49
2018-07-20T23:50:46.025Z,97871.60
2018-07-20T23:53:15.212Z,97868.64
2018-07-20T23:55:44.430Z,97875.87
2018-07-20T23:58:13.653Z,97877.98
